createdAt,value
2023-04-22T00:02:17.787Z,16.63
2023-04-22T00:04:46.774Z,19.50
2023-04-22T00:07:15.494Z,27.73
2023-04-22T00:09:44.566Z,22.25
2023-04-22T00:12:13.288Z,15.60
2023-04-22T00:14:41.783Z,17.27
2023-04-22T00:17:12.720Z,14.13
2023-04-22T00:19:43.850Z,14.98
2023-04-22T00:22:12.234Z,18.05
2023-04-22T00:24:40.842Z,15.45
2023-04-22T00:27:09.536Z,17.00
2023-04-22T00:29:38.325Z,16.02
2023-04-22T00:32:07.099Z,13.45
2023-04-22T00:34:35.516Z,12.35
2023-04-22T00:37:05.289Z,14.35
2023-04-22T00:39:33.714Z,19.05
2023-04-22T00:42:03.092Z,14.77
2023-04-22T00:44:31.966Z,16.23
2023-04-22T00:47:00.795Z,16.08
2023-04-22T00:49:29.420Z,15.48
2023-04-22T00:51:57.865Z,15.93
2023-04-22T00:54:28.805Z,13.57
2023-04-22T00:56:58.861Z,16.20
2023-04-22T00:59:27.401Z,14.23
2023-04-22T01:01:55.913Z,15.85
2023-04-22T01:04:25.069Z,19.30
2023-04-22T01:06:54.172Z,15.20
2023-04-22T01:09:22.606Z,13.80
2023-04-22T01:11:52.400Z,17.33
2023-04-22T01:14:20.822Z,18.40
2023-04-22T01:16:49.289Z,15.15
2023-04-22T01:19:18.099Z,14.38
2023-04-22T01:21:46.926Z,14.35
2023-04-22T01:24:19.937Z,14.10
2023-04-22T01:26:48.597Z,14.65
2023-04-22T01:29:17.137Z,16.05
2023-04-22T01:31:45.677Z,15.38
2023-04-22T01:34:14.211Z,17.77
2023-04-22T01:36:42.607Z,17.80
2023-04-22T01:39:13.412Z,12.50
2023-04-22T01:41:43.640Z,17.85
2023-04-22T01:44:14.183Z,18.73
2023-04-22T01:46:42.654Z,17.52
2023-04-22T01:49:11.238Z,17.70
2023-04-22T01:51:39.622Z,19.75
2023-04-22T01:54:08.084Z,17.75
2023-04-22T01:56:38.722Z,16.23
2023-04-22T01:59:08.504Z,16.33
2023-04-22T02:01:39.028Z,17.73
2023-04-22T02:04:08.310Z,19.35
2023-04-22T02:06:36.913Z,19.77
2023-04-22T02:09:07.560Z,20.98
2023-04-22T02:11:35.988Z,21.20
2023-04-22T02:14:04.429Z,16.45
2023-04-22T02:16:34.266Z,15.35
2023-04-22T02:19:02.777Z,20.75
2023-04-22T02:21:32.270Z,15.35
2023-04-22T02:24:00.716Z,15.32
2023-04-22T02:26:30.832Z,18.77
2023-04-22T02:28:59.735Z,18.50
2023-04-22T02:31:28.778Z,26.20
2023-04-22T02:33:58.725Z,19.08
2023-04-22T02:36:28.691Z,16.33
2023-04-22T02:38:57.414Z,14.27
2023-04-22T02:41:26.121Z,22.00
2023-04-22T02:43:54.571Z,18.20
2023-04-22T02:46:23.232Z,17.38
2023-04-22T02:48:51.859Z,19.40
2023-04-22T02:51:21.914Z,20.83
2023-04-22T02:53:52.935Z,22.45
2023-04-22T02:56:21.891Z,14.85
2023-04-22T02:58:50.331Z,14.77
2023-04-22T03:01:19.214Z,16.42
2023-04-22T03:03:48.505Z,19.63
2023-04-22T03:06:24.162Z,16.98
2023-04-22T03:08:52.934Z,18.20
2023-04-22T03:11:21.516Z,16.77
2023-04-22T03:13:49.879Z,20.02
2023-04-22T03:16:19.069Z,22.83
2023-04-22T03:18:48.487Z,16.63
2023-04-22T03:21:17.170Z,14.68
2023-04-22T03:23:47.665Z,13.38
2023-04-22T03:26:16.161Z,16.73
2023-04-22T03:28:44.673Z,18.30
2023-04-22T03:31:13.054Z,18.02
2023-04-22T03:33:41.648Z,17.75
2023-04-22T03:36:19.537Z,15.27
2023-04-22T03:38:52.076Z,15.23
2023-04-22T03:41:21.235Z,17.08
2023-04-22T03:43:50.303Z,16.30
2023-04-22T03:46:19.454Z,17.73
2023-04-22T03:48:59.560Z,19.55
2023-04-22T03:51:31.262Z,21.98
2023-04-22T03:54:05.280Z,17.60
2023-04-22T03:56:37.529Z,17.85
2023-04-22T03:59:06.666Z,18.95
2023-04-22T04:01:36.138Z,19.40
2023-04-22T04:04:08.075Z,18.27
2023-04-22T04:06:56.989Z,22.13
2023-04-22T04:09:26.767Z,18.33
2023-04-22T04:11:55.336Z,20.17
2023-04-22T04:14:24.077Z,17.30
2023-04-22T04:16:53.532Z,18.55
2023-04-22T04:19:33.599Z,17.70
2023-04-22T04:22:02.178Z,15.68
2023-04-22T04:24:42.086Z,19.02
2023-04-22T04:27:17.074Z,20.65
2023-04-22T04:29:52.617Z,20.67
2023-04-22T04:32:47.297Z,18.70
2023-04-22T04:35:20.240Z,17.73
2023-04-22T04:37:53.777Z,20.77
2023-04-22T04:40:23.623Z,19.95
2023-04-22T04:45:55.367Z,18.85
2023-04-22T04:48:36.337Z,16.63
2023-04-22T04:51:10.079Z,18.70
2023-04-22T04:53:44.329Z,15.90
2023-04-22T04:56:14.579Z,21.45
2023-04-22T04:58:43.644Z,16.70
2023-04-22T05:01:25.022Z,15.63
2023-04-22T05:03:54.530Z,16.48
2023-04-22T05:06:23.107Z,19.95
2023-04-22T05:08:56.882Z,18.40
2023-04-22T05:11:26.732Z,20.63
2023-04-22T05:13:56.545Z,14.52
2023-04-22T05:16:33.170Z,15.52
2023-04-22T05:19:02.174Z,17.98
2023-04-22T05:21:31.386Z,22.35
2023-04-22T05:24:01.318Z,16.80
2023-04-22T05:26:31.894Z,18.88
2023-04-22T05:29:01.025Z,15.85
2023-04-22T05:31:29.774Z,17.35
2023-04-22T05:34:00.068Z,15.23
2023-04-22T05:36:31.432Z,17.85
2023-04-22T05:39:09.570Z,17.98
2023-04-22T05:41:39.558Z,17.65
2023-04-22T05:44:11.146Z,19.05
2023-04-22T05:46:40.092Z,15.95
2023-04-22T05:49:09.171Z,19.83
2023-04-22T05:51:56.195Z,15.27
2023-04-22T05:54:30.063Z,17.17
2023-04-22T05:57:00.507Z,16.02
2023-04-22T05:59:28.990Z,16.98
2023-04-22T06:01:57.962Z,15.23
2023-04-22T06:04:27.172Z,18.75
2023-04-22T06:07:02.608Z,14.85
2023-04-22T06:09:32.089Z,15.73
2023-04-22T06:12:02.026Z,17.23
2023-04-22T06:14:30.758Z,21.15
2023-04-22T06:16:59.160Z,21.45
2023-04-22T06:19:27.862Z,18.98
2023-04-22T06:21:56.327Z,15.23
2023-04-22T06:24:25.418Z,13.43
2023-04-22T06:26:58.106Z,18.65
2023-04-22T06:29:29.793Z,18.23
2023-04-22T06:31:58.272Z,17.00
2023-04-22T06:34:26.863Z,20.02
2023-04-22T06:36:55.705Z,16.08
2023-04-22T06:39:24.266Z,13.55
2023-04-22T06:42:11.422Z,17.33
2023-04-22T06:44:52.364Z,14.65
2023-04-22T06:47:43.945Z,16.08
2023-04-22T06:50:18.008Z,15.43
2023-04-22T06:52:56.317Z,17.63
2023-04-22T06:55:26.278Z,17.10
2023-04-22T06:57:54.706Z,19.02
2023-04-22T07:00:25.563Z,14.48
2023-04-22T07:02:54.137Z,16.15
2023-04-22T07:05:22.843Z,14.32
2023-04-22T07:07:51.370Z,19.00
2023-04-22T07:10:22.909Z,15.23
2023-04-22T07:13:09.588Z,15.85
2023-04-22T07:15:39.349Z,15.68
2023-04-22T07:18:07.803Z,15.90
2023-04-22T07:20:36.170Z,16.15
2023-04-22T07:23:04.651Z,15.00
2023-04-22T07:25:33.028Z,16.80
2023-04-22T07:28:01.350Z,16.45
2023-04-22T07:30:29.727Z,13.90
2023-04-22T07:32:59.587Z,22.35
2023-04-22T07:35:31.619Z,14.48
2023-04-22T07:38:00.042Z,18.42
2023-04-22T07:40:28.421Z,15.43
2023-04-22T07:42:56.886Z,19.20
2023-04-22T07:45:25.276Z,13.60
2023-04-22T07:47:53.750Z,17.00
2023-04-22T07:50:23.679Z,18.33
2023-04-22T07:52:52.283Z,14.48
2023-04-22T07:55:20.677Z,17.23
2023-04-22T07:57:49.097Z,13.82
2023-04-22T08:00:17.763Z,12.85
2023-04-22T08:02:47.469Z,18.05
2023-04-22T08:05:16.035Z,16.77
2023-04-22T08:07:46.319Z,13.93
2023-04-22T08:10:14.814Z,19.85
2023-04-22T08:12:43.195Z,18.10
2023-04-22T08:15:12.255Z,18.15
2023-04-22T08:17:40.920Z,11.90
2023-04-22T08:20:10.177Z,16.88
2023-04-22T08:22:38.779Z,14.63
2023-04-22T08:25:09.411Z,17.13
2023-04-22T08:27:37.941Z,19.60
2023-04-22T08:30:07.104Z,15.80
2023-04-22T08:32:35.528Z,16.52
2023-04-22T08:35:05.174Z,16.20
2023-04-22T08:37:34.005Z,14.38
2023-04-22T08:40:02.449Z,14.15
2023-04-22T08:42:35.384Z,17.92
2023-04-22T08:45:05.504Z,21.48
2023-04-22T08:47:34.293Z,15.80
2023-04-22T08:50:04.465Z,15.13
2023-04-22T08:52:33.169Z,14.23
2023-04-22T08:55:02.100Z,17.35
2023-04-22T08:57:31.260Z,15.93
2023-04-22T09:00:01.434Z,16.13
2023-04-22T09:02:31.147Z,14.70
2023-04-22T09:05:00.055Z,15.15
2023-04-22T09:07:29.224Z,11.52
2023-04-22T09:09:57.952Z,20.25
2023-04-22T09:12:27.083Z,15.15
2023-04-22T09:14:56.094Z,14.20
2023-04-22T09:17:33.429Z,15.02
2023-04-22T09:20:02.281Z,16.08
2023-04-22T09:22:38.627Z,16.67
2023-04-22T09:25:07.501Z,14.23
2023-04-22T09:27:37.317Z,13.20
2023-04-22T09:30:10.210Z,12.77
2023-04-22T09:32:41.596Z,13.65
2023-04-22T09:35:10.775Z,15.68
2023-04-22T09:37:48.851Z,14.65
2023-04-22T09:40:20.039Z,15.88
2023-04-22T09:42:49.881Z,16.70
2023-04-22T09:45:27.151Z,17.58
2023-04-22T09:47:57.792Z,17.33
2023-04-22T09:50:27.440Z,15.85
2023-04-22T09:52:56.953Z,15.23
2023-04-22T09:55:26.367Z,14.52
2023-04-22T09:57:55.617Z,14.88
2023-04-22T10:00:24.670Z,13.70
2023-04-22T10:02:53.194Z,12.60
2023-04-22T10:05:24.211Z,18.10
2023-04-22T10:07:53.171Z,11.35
2023-04-22T10:10:21.857Z,14.07
2023-04-22T10:12:53.631Z,15.45
2023-04-22T10:15:22.240Z,11.20
2023-04-22T10:17:54.143Z,10.80
2023-04-22T10:20:24.750Z,13.32
2023-04-22T10:22:55.046Z,14.98
2023-04-22T10:25:24.543Z,8.60
2023-04-22T10:27:56.445Z,15.05
2023-04-22T10:30:31.219Z,13.17
2023-04-22T10:33:31.717Z,17.90
2023-04-22T10:36:09.273Z,11.57
2023-04-22T10:38:38.274Z,15.38
2023-04-22T10:41:06.824Z,12.73
2023-04-22T10:43:43.783Z,12.40
2023-04-22T10:46:27.161Z,12.82
2023-04-22T10:48:58.699Z,12.77
2023-04-22T10:51:43.962Z,13.07
2023-04-22T10:54:38.026Z,12.18
2023-04-22T10:57:08.355Z,14.40
2023-04-22T10:59:37.725Z,12.27
2023-04-22T11:02:07.301Z,12.57
2023-04-22T11:04:37.293Z,10.95
2023-04-22T11:07:15.444Z,10.13
2023-04-22T11:09:45.180Z,12.35
2023-04-22T11:12:32.082Z,15.73
2023-04-22T11:15:02.324Z,8.07
2023-04-22T11:17:32.605Z,9.82
2023-04-22T11:20:04.820Z,10.45
2023-04-22T11:22:36.876Z,10.73
2023-04-22T11:25:09.989Z,20.48
2023-04-22T11:27:38.706Z,11.27
2023-04-22T11:30:09.645Z,14.80
2023-04-22T11:32:38.687Z,12.05
2023-04-22T11:35:08.418Z,10.02
2023-04-22T11:37:41.902Z,10.43
2023-04-22T11:40:29.378Z,12.52
2023-04-22T11:42:59.991Z,9.50
2023-04-22T11:45:30.147Z,9.60
2023-04-22T11:47:58.991Z,11.55
2023-04-22T11:50:29.161Z,8.95
2023-04-22T11:52:59.007Z,12.52
2023-04-22T11:55:31.488Z,11.25
2023-04-22T11:58:00.931Z,11.98
2023-04-22T12:00:34.624Z,10.60
2023-04-22T12:03:04.312Z,10.38
2023-04-22T12:05:37.291Z,13.40
2023-04-22T12:08:08.046Z,10.07
2023-04-22T12:10:41.021Z,13.52
2023-04-22T12:13:09.838Z,10.43
2023-04-22T12:15:43.600Z,11.02
2023-04-22T12:18:14.326Z,7.53
2023-04-22T12:20:43.283Z,10.45
2023-04-22T12:23:15.477Z,10.65
2023-04-22T12:25:44.629Z,13.02
2023-04-22T12:28:14.308Z,14.48
2023-04-22T12:30:44.265Z,11.90
2023-04-22T12:33:12.765Z,12.95
2023-04-22T12:35:41.585Z,11.88
2023-04-22T12:38:10.050Z,11.23
2023-04-22T12:40:38.487Z,13.82
2023-04-22T12:43:06.903Z,11.55
2023-04-22T12:45:35.345Z,14.27
2023-04-22T12:48:05.339Z,12.98
2023-04-22T12:50:33.792Z,8.63
2023-04-22T12:53:04.825Z,11.85
2023-04-22T12:55:33.482Z,12.68
2023-04-22T12:58:01.897Z,12.80
2023-04-22T13:00:30.601Z,13.63
2023-04-22T13:02:59.188Z,10.80
2023-04-22T13:05:29.077Z,17.55
2023-04-22T13:08:06.415Z,11.15
2023-04-22T13:10:35.508Z,12.65
2023-04-22T13:13:17.062Z,9.38
2023-04-22T13:15:47.720Z,15.30
2023-04-22T13:18:17.248Z,14.77
2023-04-22T13:20:47.706Z,12.48
2023-04-22T13:23:16.959Z,15.95
2023-04-22T13:25:45.833Z,8.27
2023-04-22T13:28:14.219Z,10.85
2023-04-22T13:30:42.700Z,8.40
2023-04-22T13:33:11.181Z,14.90
2023-04-22T13:35:39.645Z,12.55
2023-04-22T13:38:09.515Z,8.98
2023-04-22T13:40:37.980Z,14.32
2023-04-22T13:43:06.931Z,16.00
2023-04-22T13:45:35.463Z,11.27
2023-04-22T13:48:03.983Z,13.52
2023-04-22T13:50:32.581Z,11.65
2023-04-22T13:53:01.079Z,10.73
2023-04-22T13:55:30.943Z,12.18
2023-04-22T13:58:01.096Z,12.27
2023-04-22T14:00:29.616Z,13.65
2023-04-22T14:02:58.157Z,17.60
2023-04-22T14:05:30.179Z,14.88
2023-04-22T14:07:58.655Z,15.60
2023-04-22T14:10:28.708Z,11.82
2023-04-22T14:12:58.722Z,12.88
2023-04-22T14:15:27.100Z,13.80
2023-04-22T14:17:55.505Z,14.23
2023-04-22T14:20:25.878Z,11.27
2023-04-22T14:22:54.345Z,14.45
2023-04-22T14:25:23.208Z,8.25
2023-04-22T14:27:53.882Z,9.60
2023-04-22T14:30:23.875Z,10.90
2023-04-22T14:32:52.366Z,8.63
2023-04-22T14:35:21.114Z,10.73
2023-04-22T14:37:49.668Z,10.80
2023-04-22T14:40:20.003Z,11.52
2023-04-22T14:42:48.423Z,14.95
2023-04-22T14:45:16.940Z,15.38
2023-04-22T14:47:46.835Z,14.95
2023-04-22T14:50:15.254Z,9.77
2023-04-22T14:52:45.971Z,15.38
2023-04-22T14:55:23.204Z,15.05
2023-04-22T14:57:52.900Z,14.80
2023-04-22T15:00:21.575Z,19.35
2023-04-22T15:02:51.434Z,11.68
2023-04-22T15:05:19.968Z,10.13
2023-04-22T15:07:48.342Z,10.60
2023-04-22T15:10:17.482Z,9.35
2023-04-22T15:12:48.197Z,10.40
2023-04-22T15:15:18.267Z,15.75
2023-04-22T15:17:46.864Z,14.43
2023-04-22T15:20:16.680Z,11.93
2023-04-22T15:22:45.588Z,13.18
2023-04-22T15:25:15.473Z,15.05
2023-04-22T15:27:45.279Z,9.57
2023-04-22T15:30:14.453Z,8.18
2023-04-22T15:32:42.959Z,7.97
2023-04-22T15:35:11.941Z,11.40
2023-04-22T15:37:41.767Z,9.27
2023-04-22T15:40:10.554Z,11.75
2023-04-22T15:42:39.043Z,13.68
2023-04-22T15:45:13.133Z,10.00
2023-04-22T15:47:42.252Z,12.23
2023-04-22T15:50:11.793Z,17.40
2023-04-22T15:52:43.856Z,10.80
2023-04-22T15:55:12.414Z,10.95
2023-04-22T15:57:40.955Z,9.85
2023-04-22T16:00:13.084Z,9.25
2023-04-22T16:02:43.204Z,9.68
2023-04-22T16:05:12.459Z,7.82
2023-04-22T16:07:41.241Z,14.38
2023-04-22T16:10:11.935Z,12.45
2023-04-22T16:12:40.369Z,9.93
2023-04-22T16:15:11.590Z,9.68
2023-04-22T16:17:40.163Z,14.00
2023-04-22T16:20:09.514Z,8.35
2023-04-22T16:22:38.080Z,9.88
2023-04-22T16:25:06.983Z,10.00
2023-04-22T16:27:36.726Z,9.55
2023-04-22T16:30:05.665Z,12.60
2023-04-22T16:32:34.069Z,13.15
2023-04-22T16:35:02.518Z,9.25
2023-04-22T16:37:30.968Z,12.23
2023-04-22T16:39:59.490Z,10.18
2023-04-22T16:42:28.000Z,9.05
2023-04-22T16:44:57.706Z,9.63
2023-04-22T16:47:28.200Z,11.10
2023-04-22T16:49:56.806Z,11.95
2023-04-22T16:52:25.278Z,13.35
2023-04-22T16:54:53.676Z,12.75
2023-04-22T16:57:22.057Z,10.07
2023-04-22T16:59:50.453Z,10.70
2023-04-22T17:02:20.375Z,9.80
2023-04-22T17:04:48.876Z,9.10
2023-04-22T17:07:17.299Z,11.93
2023-04-22T17:09:45.736Z,8.05
2023-04-22T17:12:14.453Z,13.95
2023-04-22T17:14:42.905Z,12.68
2023-04-22T17:17:11.457Z,12.90
2023-04-22T17:19:42.928Z,16.88
2023-04-22T17:22:12.097Z,16.57
2023-04-22T17:24:40.563Z,10.70
2023-04-22T17:27:09.039Z,13.73
2023-04-22T17:29:40.202Z,10.88
2023-04-22T17:32:08.837Z,13.85
2023-04-22T17:34:37.270Z,13.77
2023-04-22T17:37:07.032Z,14.88
2023-04-22T17:39:35.813Z,9.13
2023-04-22T17:42:04.203Z,9.63
2023-04-22T17:44:32.618Z,14.35
2023-04-22T17:47:01.098Z,11.27
2023-04-22T17:49:29.596Z,10.95
2023-04-22T17:51:57.989Z,13.27
2023-04-22T17:54:27.840Z,12.20
2023-04-22T17:56:56.214Z,14.15
2023-04-22T17:59:24.558Z,15.25
2023-04-22T18:01:53.307Z,16.40
2023-04-22T18:04:21.734Z,18.13
2023-04-22T18:06:50.222Z,20.98
2023-04-22T18:09:18.621Z,12.77
2023-04-22T18:11:48.447Z,11.75
2023-04-22T18:14:17.027Z,13.35
2023-04-22T18:16:45.420Z,15.35
2023-04-22T18:19:14.013Z,15.43
2023-04-22T18:21:52.859Z,12.68
2023-04-22T18:24:27.822Z,16.30
2023-04-22T18:26:57.984Z,16.25
2023-04-22T18:29:26.393Z,16.92
2023-04-22T18:31:54.981Z,14.30
2023-04-22T18:34:23.589Z,14.43
2023-04-22T18:36:52.413Z,16.17
2023-04-22T18:39:21.252Z,15.25
2023-04-22T18:41:49.735Z,13.40
2023-04-22T18:44:22.156Z,15.35
2023-04-22T18:46:52.274Z,17.48
2023-04-22T18:49:20.732Z,14.88
2023-04-22T18:51:49.537Z,16.00
2023-04-22T18:54:17.962Z,13.55
2023-04-22T18:56:46.422Z,18.10
2023-04-22T18:59:14.959Z,16.85
2023-04-22T19:01:46.828Z,15.40
2023-04-22T19:04:15.492Z,18.30
2023-04-22T19:06:43.926Z,18.20
2023-04-22T19:09:12.399Z,18.35
2023-04-22T19:11:40.824Z,18.25
2023-04-22T19:14:09.432Z,17.35
2023-04-22T19:16:37.824Z,18.55
2023-04-22T19:19:07.698Z,17.67
2023-04-22T19:21:36.070Z,18.52
2023-04-22T19:24:04.930Z,16.27
2023-04-22T19:26:33.362Z,19.30
2023-04-22T19:29:01.733Z,19.27
2023-04-22T19:31:30.467Z,18.48
2023-04-22T19:33:59.218Z,19.30
2023-04-22T19:36:29.158Z,17.75
2023-04-22T19:38:57.528Z,19.70
2023-04-22T19:41:26.015Z,17.23
2023-04-22T19:43:58.969Z,19.67
2023-04-22T19:46:27.517Z,17.15
2023-04-22T19:48:56.527Z,25.50
2023-04-22T19:51:24.941Z,18.67
2023-04-22T19:53:56.142Z,20.45
2023-04-22T19:56:24.648Z,16.67
2023-04-22T19:58:53.594Z,18.75
2023-04-22T20:01:22.481Z,17.25
2023-04-22T20:03:53.383Z,18.88
2023-04-22T20:06:24.528Z,16.98
2023-04-22T20:08:54.222Z,18.02
2023-04-22T20:11:25.845Z,15.50
2023-04-22T20:13:54.604Z,21.02
2023-04-22T20:16:24.156Z,17.52
2023-04-22T20:18:52.826Z,16.70
2023-04-22T20:21:21.515Z,16.08
2023-04-22T20:23:53.994Z,19.55
2023-04-22T20:26:24.337Z,18.80
2023-04-22T20:28:53.995Z,17.88
2023-04-22T20:31:24.242Z,13.73
2023-04-22T20:33:53.255Z,18.33
2023-04-22T20:36:22.669Z,17.00
2023-04-22T20:38:52.169Z,16.25
2023-04-22T20:41:21.199Z,16.10
2023-04-22T20:43:51.078Z,23.33
2023-04-22T20:46:23.114Z,19.02
2023-04-22T20:48:52.355Z,21.45
2023-04-22T20:51:20.842Z,20.02
2023-04-22T20:53:50.535Z,22.52
2023-04-22T20:56:19.568Z,20.45
2023-04-22T20:58:48.287Z,15.93
2023-04-22T21:01:19.503Z,19.67
2023-04-22T21:03:51.778Z,20.95
2023-04-22T21:06:21.821Z,20.48
2023-04-22T21:08:50.577Z,21.05
2023-04-22T21:11:19.313Z,20.95
2023-04-22T21:13:48.717Z,19.08
2023-04-22T21:16:20.184Z,21.83
2023-04-22T21:18:51.630Z,22.13
2023-04-22T21:21:21.291Z,20.23
2023-04-22T21:23:49.958Z,21.52
2023-04-22T21:26:19.104Z,19.58
2023-04-22T21:28:47.760Z,15.88
2023-04-22T21:31:21.078Z,16.83
2023-04-22T21:33:49.455Z,20.85
2023-04-22T21:36:17.956Z,19.25
2023-04-22T21:38:46.840Z,18.65
2023-04-22T21:41:15.303Z,18.27
2023-04-22T21:43:43.832Z,14.63
2023-04-22T21:46:12.250Z,22.88
2023-04-22T21:48:42.042Z,16.85
2023-04-22T21:51:10.751Z,15.82
2023-04-22T21:53:39.156Z,17.20
2023-04-22T21:56:08.463Z,18.35
2023-04-22T21:58:36.886Z,22.88
2023-04-22T22:01:05.323Z,20.45
2023-04-22T22:03:33.944Z,17.40
2023-04-22T22:06:03.805Z,21.50
2023-04-22T22:08:32.633Z,18.10
2023-04-22T22:11:03.816Z,18.55
2023-04-22T22:13:32.234Z,20.10
2023-04-22T22:16:00.652Z,17.60
2023-04-22T22:18:29.212Z,19.42
2023-04-22T22:20:57.593Z,19.23
2023-04-22T22:23:27.395Z,18.67
2023-04-22T22:25:55.781Z,18.65
2023-04-22T22:28:24.194Z,19.02
2023-04-22T22:30:52.596Z,17.55
2023-04-22T22:33:20.946Z,18.13
2023-04-22T22:35:49.340Z,17.33
2023-04-22T22:38:17.813Z,15.70
2023-04-22T22:40:47.584Z,18.17
2023-04-22T22:43:16.104Z,15.95
2023-04-22T22:45:44.663Z,14.98
2023-04-22T22:48:13.081Z,14.15
2023-04-22T22:50:41.804Z,17.17
2023-04-22T22:53:10.282Z,16.23
2023-04-22T22:55:38.692Z,20.20
2023-04-22T22:58:08.432Z,16.73
2023-04-22T23:00:36.828Z,16.02
2023-04-22T23:03:05.610Z,14.57
2023-04-22T23:05:34.044Z,19.05
2023-04-22T23:08:02.442Z,15.10
2023-04-22T23:10:30.893Z,20.17
2023-04-22T23:12:59.366Z,14.95
2023-04-22T23:15:29.057Z,13.65
2023-04-22T23:17:57.510Z,15.07
2023-04-22T23:20:26.207Z,16.75
2023-04-22T23:22:57.626Z,17.95
2023-04-22T23:25:26.280Z,16.80
2023-04-22T23:27:54.779Z,15.95
2023-04-22T23:30:23.817Z,14.68
2023-04-22T23:32:53.842Z,13.95
2023-04-22T23:35:22.243Z,18.33
2023-04-22T23:37:53.728Z,16.58
2023-04-22T23:40:22.119Z,13.77
2023-04-22T23:42:52.783Z,15.55
2023-04-22T23:45:21.227Z,16.20
2023-04-22T23:47:49.630Z,14.80
2023-04-22T23:50:22.072Z,16.02
2023-04-22T23:52:50.486Z,14.15
2023-04-22T23:55:19.330Z,17.48
2023-04-22T23:57:48.019Z,19.33
